Terminal Aerodrome Forecast
Issued by NWS

Home | Current Version | Previous Version | Text Only | Print | Product List | Glossary Off
Versions: 1 2 3 4 5 6 7 8 9 10 11 12 13 14 15 16 17 18 19 20 21 22 23 24 25 26 27

937
FTUS43 KLOT 262108 AAA
TAFORD
TAF AMD
KORD 262108Z 2621/2724 23013G20KT P6SM VCSH SCT040 BKN050
     FM270000 25013KT P6SM VCSH SCT025 OVC035
      TEMPO 2703/2707 VRB18G30KT 4SM TSRA SCT012 OVC020CB
     FM270700 21010KT 2SM RA BR VCTS SCT008 OVC015CB
     FM271000 25010KT 5SM SHRA OVC008
     FM271400 27012G18KT P6SM VCSH BKN010
     FM271700 29015G25KT P6SM BKN015=

USA.gov is the U.S. government's official web portal to all federal, state and local government web resources and services.